LRSM

Satu Mare Airport

Satu Mare, Romania
TAF LRSM 170200Z 1703/1712 11006KT CAVOK BECMG 1708/1710 20010KT
Issued Valid From Valid To
Jan-17 @ 02:00 UTC
(3 hours ago)
Jan-17 @ 03:00 UTC
(2 hours ago)
Jan-17 @ 12:00 UTC
(in 7 hours)
Jan-17 @ 03:00 to Jan-17 @ 08:00
TAF LRSM 170200Z 1703/1712 11006KT CAVOK
Wind Visibility Clouds Conditions
110° at 6 knots 10,000+ meters
  • No significant clouds
Becoming Jan-17 @ 08:00 to Jan-17 @ 12:00
BECMG 1708/1710 20010KT
Wind Visibility Clouds Conditions
200° at 10 knots 10,000+ meters
  • No significant clouds
TAF LRSM 170200Z 1703/1712 11006KT CAVOK BECMG 1708/1710 20010KT
Issued Jan-17 @ 02:00 UTC
(3 hours ago)
Valid From Jan-17 @ 03:00 UTC
(2 hours ago)
Valid To Jan-17 @ 12:00 UTC
(in 7 hours)
Jan-17 @ 03:00 - Jan-17 @ 08:00
Wind Visibility
110° at 6 knots 10,000+ meters
Clouds
  • No significant clouds
Conditions
Becoming Jan-17 @ 08:00 - Jan-17 @ 12:00
Wind Visibility
200° at 10 knots 10,000+ meters
Clouds
  • No significant clouds
Conditions